sensor_id;sensor_type;location;lat;lon;timestamp;P1;durP1;ratioP1;P2;durP2;ratioP2
48627;SDS011;34424;52.234;6.500;2022-12-18T00:02:20;123.82;;;38.60;;
48627;SDS011;34424;52.234;6.500;2022-12-18T00:07:24;126.82;;;40.85;;
48627;SDS011;34424;52.234;6.500;2022-12-18T00:12:26;108.50;;;39.50;;
48627;SDS011;34424;52.234;6.500;2022-12-18T00:17:30;109.25;;;37.55;;
48627;SDS011;34424;52.234;6.500;2022-12-18T00:22:34;125.38;;;40.10;;
48627;SDS011;34424;52.234;6.500;2022-12-18T00:27:36;133.98;;;45.13;;
48627;SDS011;34424;52.234;6.500;2022-12-18T00:32:39;128.73;;;44.05;;
48627;SDS011;34424;52.234;6.500;2022-12-18T00:37:42;90.55;;;34.38;;
48627;SDS011;34424;52.234;6.500;2022-12-18T00:42:45;133.32;;;42.03;;
48627;SDS011;34424;52.234;6.500;2022-12-18T00:47:59;118.13;;;37.75;;
48627;SDS011;34424;52.234;6.500;2022-12-18T00:53:03;135.13;;;39.80;;
48627;SDS011;34424;52.234;6.500;2022-12-18T00:58:05;135.02;;;45.25;;
48627;SDS011;34424;52.234;6.500;2022-12-18T01:03:09;134.53;;;41.60;;
48627;SDS011;34424;52.234;6.500;2022-12-18T01:13:15;106.63;;;32.67;;
48627;SDS011;34424;52.234;6.500;2022-12-18T01:18:17;114.85;;;38.00;;
48627;SDS011;34424;52.234;6.500;2022-12-18T01:23:20;124.88;;;38.83;;
48627;SDS011;34424;52.234;6.500;2022-12-18T01:28:23;126.95;;;40.05;;
48627;SDS011;34424;52.234;6.500;2022-12-18T01:33:26;104.90;;;39.33;;
48627;SDS011;34424;52.234;6.500;2022-12-18T01:38:28;108.47;;;38.28;;
48627;SDS011;34424;52.234;6.500;2022-12-18T01:43:49;108.33;;;37.80;;
48627;SDS011;34424;52.234;6.500;2022-12-18T01:48:53;113.97;;;37.97;;
48627;SDS011;34424;52.234;6.500;2022-12-18T01:53:58;110.93;;;39.00;;
48627;SDS011;34424;52.234;6.500;2022-12-18T01:59:03;103.22;;;36.63;;
48627;SDS011;34424;52.234;6.500;2022-12-18T02:04:16;100.63;;;36.42;;
48627;SDS011;34424;52.234;6.500;2022-12-18T02:09:22;103.75;;;35.78;;
48627;SDS011;34424;52.234;6.500;2022-12-18T02:14:28;99.68;;;33.20;;
48627;SDS011;34424;52.234;6.500;2022-12-18T02:19:37;72.25;;;32.00;;
48627;SDS011;34424;52.234;6.500;2022-12-18T02:24:44;89.90;;;33.72;;
48627;SDS011;34424;52.234;6.500;2022-12-18T02:29:53;97.38;;;32.92;;
48627;SDS011;34424;52.234;6.500;2022-12-18T02:34:59;89.10;;;33.05;;
48627;SDS011;34424;52.234;6.500;2022-12-18T02:40:03;91.18;;;31.27;;
48627;SDS011;34424;52.234;6.500;2022-12-18T02:50:12;78.60;;;31.13;;
48627;SDS011;34424;52.234;6.500;2022-12-18T02:55:21;76.78;;;30.92;;
48627;SDS011;34424;52.234;6.500;2022-12-18T03:00:26;81.35;;;31.75;;
48627;SDS011;34424;52.234;6.500;2022-12-18T03:05:33;69.88;;;28.58;;
48627;SDS011;34424;52.234;6.500;2022-12-18T03:10:40;62.75;;;26.13;;
48627;SDS011;34424;52.234;6.500;2022-12-18T03:15:45;87.38;;;28.77;;
48627;SDS011;34424;52.234;6.500;2022-12-18T03:20:51;76.78;;;27.80;;
48627;SDS011;34424;52.234;6.500;2022-12-18T03:25:57;59.67;;;25.73;;
48627;SDS011;34424;52.234;6.500;2022-12-18T03:31:08;60.08;;;25.83;;
48627;SDS011;34424;52.234;6.500;2022-12-18T03:36:13;70.65;;;27.73;;
48627;SDS011;34424;52.234;6.500;2022-12-18T03:41:17;68.40;;;28.15;;
48627;SDS011;34424;52.234;6.500;2022-12-18T03:46:23;50.67;;;23.92;;
48627;SDS011;34424;52.234;6.500;2022-12-18T03:51:30;59.65;;;26.23;;
48627;SDS011;34424;52.234;6.500;2022-12-18T03:56:37;66.63;;;26.80;;
48627;SDS011;34424;52.234;6.500;2022-12-18T04:01:42;55.30;;;24.50;;
48627;SDS011;34424;52.234;6.500;2022-12-18T04:06:49;56.22;;;24.15;;
48627;SDS011;34424;52.234;6.500;2022-12-18T04:11:52;65.25;;;26.83;;
48627;SDS011;34424;52.234;6.500;2022-12-18T04:16:54;50.97;;;24.63;;
48627;SDS011;34424;52.234;6.500;2022-12-18T04:21:58;66.25;;;24.98;;
48627;SDS011;34424;52.234;6.500;2022-12-18T04:27:00;55.75;;;24.48;;
48627;SDS011;34424;52.234;6.500;2022-12-18T04:32:03;54.57;;;24.57;;
48627;SDS011;34424;52.234;6.500;2022-12-18T04:37:06;58.07;;;22.80;;
48627;SDS011;34424;52.234;6.500;2022-12-18T04:42:10;52.63;;;22.65;;
48627;SDS011;34424;52.234;6.500;2022-12-18T04:52:16;49.85;;;21.60;;
48627;SDS011;34424;52.234;6.500;2022-12-18T04:57:19;47.33;;;22.35;;
48627;SDS011;34424;52.234;6.500;2022-12-18T05:02:21;48.10;;;22.20;;
48627;SDS011;34424;52.234;6.500;2022-12-18T05:07:25;45.97;;;21.42;;
48627;SDS011;34424;52.234;6.500;2022-12-18T05:12:27;51.35;;;22.85;;
48627;SDS011;34424;52.234;6.500;2022-12-18T05:17:30;50.60;;;22.67;;
48627;SDS011;34424;52.234;6.500;2022-12-18T05:22:33;45.60;;;22.23;;
48627;SDS011;34424;52.234;6.500;2022-12-18T05:27:36;45.25;;;21.13;;
48627;SDS011;34424;52.234;6.500;2022-12-18T05:32:39;45.33;;;19.53;;
48627;SDS011;34424;52.234;6.500;2022-12-18T05:37:42;49.38;;;19.52;;
48627;SDS011;34424;52.234;6.500;2022-12-18T05:42:45;41.88;;;20.75;;
48627;SDS011;34424;52.234;6.500;2022-12-18T05:47:47;43.77;;;19.97;;
48627;SDS011;34424;52.234;6.500;2022-12-18T05:52:52;34.67;;;19.50;;
48627;SDS011;34424;52.234;6.500;2022-12-18T05:57:55;43.25;;;19.05;;
48627;SDS011;34424;52.234;6.500;2022-12-18T06:02:58;41.07;;;19.13;;
48627;SDS011;34424;52.234;6.500;2022-12-18T06:08:02;42.75;;;19.95;;
48627;SDS011;34424;52.234;6.500;2022-12-18T06:13:06;35.92;;;17.42;;
48627;SDS011;34424;52.234;6.500;2022-12-18T06:18:09;43.42;;;20.33;;
48627;SDS011;34424;52.234;6.500;2022-12-18T06:23:12;42.97;;;18.93;;
48627;SDS011;34424;52.234;6.500;2022-12-18T06:28:15;42.80;;;19.90;;
48627;SDS011;34424;52.234;6.500;2022-12-18T06:33:18;40.77;;;18.47;;
48627;SDS011;34424;52.234;6.500;2022-12-18T06:38:22;39.95;;;18.83;;
48627;SDS011;34424;52.234;6.500;2022-12-18T06:43:25;40.05;;;17.35;;
48627;SDS011;34424;52.234;6.500;2022-12-18T06:48:27;29.83;;;17.67;;
48627;SDS011;34424;52.234;6.500;2022-12-18T06:53:31;34.47;;;17.23;;
48627;SDS011;34424;52.234;6.500;2022-12-18T06:58:34;34.97;;;16.48;;
48627;SDS011;34424;52.234;6.500;2022-12-18T07:03:36;40.87;;;18.17;;
48627;SDS011;34424;52.234;6.500;2022-12-18T07:13:43;36.75;;;16.77;;
48627;SDS011;34424;52.234;6.500;2022-12-18T07:18:46;33.00;;;18.27;;
48627;SDS011;34424;52.234;6.500;2022-12-18T07:23:49;33.47;;;16.97;;
48627;SDS011;34424;52.234;6.500;2022-12-18T07:28:55;39.27;;;16.97;;
48627;SDS011;34424;52.234;6.500;2022-12-18T07:33:58;37.20;;;17.52;;
48627;SDS011;34424;52.234;6.500;2022-12-18T07:39:01;35.85;;;18.30;;
48627;SDS011;34424;52.234;6.500;2022-12-18T07:44:05;33.10;;;17.33;;
48627;SDS011;34424;52.234;6.500;2022-12-18T07:49:07;36.63;;;17.85;;
48627;SDS011;34424;52.234;6.500;2022-12-18T07:54:09;30.33;;;16.50;;
48627;SDS011;34424;52.234;6.500;2022-12-18T07:59:13;27.77;;;15.80;;
48627;SDS011;34424;52.234;6.500;2022-12-18T08:04:16;31.15;;;16.65;;
48627;SDS011;34424;52.234;6.500;2022-12-18T08:09:18;27.38;;;15.93;;
48627;SDS011;34424;52.234;6.500;2022-12-18T08:14:22;30.38;;;16.23;;
48627;SDS011;34424;52.234;6.500;2022-12-18T08:19:25;35.05;;;16.77;;
48627;SDS011;34424;52.234;6.500;2022-12-18T08:24:27;29.10;;;17.40;;
48627;SDS011;34424;52.234;6.500;2022-12-18T08:29:31;38.20;;;18.80;;
48627;SDS011;34424;52.234;6.500;2022-12-18T08:34:35;24.73;;;14.65;;
48627;SDS011;34424;52.234;6.500;2022-12-18T08:39:37;26.17;;;14.52;;
48627;SDS011;34424;52.234;6.500;2022-12-18T08:44:41;22.80;;;15.30;;
48627;SDS011;34424;52.234;6.500;2022-12-18T08:49:43;22.25;;;13.20;;
48627;SDS011;34424;52.234;6.500;2022-12-18T08:54:46;21.77;;;11.93;;
48627;SDS011;34424;52.234;6.500;2022-12-18T08:59:49;20.45;;;12.48;;
48627;SDS011;34424;52.234;6.500;2022-12-18T09:04:52;18.50;;;13.07;;
48627;SDS011;34424;52.234;6.500;2022-12-18T09:09:58;16.70;;;11.77;;
48627;SDS011;34424;52.234;6.500;2022-12-18T09:15:01;17.00;;;12.38;;
48627;SDS011;34424;52.234;6.500;2022-12-18T09:20:04;19.08;;;12.60;;
48627;SDS011;34424;52.234;6.500;2022-12-18T09:25:07;16.77;;;12.25;;
48627;SDS011;34424;52.234;6.500;2022-12-18T09:30:11;19.40;;;12.30;;
48627;SDS011;34424;52.234;6.500;2022-12-18T09:35:14;18.30;;;13.15;;
48627;SDS011;34424;52.234;6.500;2022-12-18T09:40:18;15.68;;;11.52;;
48627;SDS011;34424;52.234;6.500;2022-12-18T09:45:23;15.82;;;11.75;;
48627;SDS011;34424;52.234;6.500;2022-12-18T09:50:27;12.77;;;10.10;;
48627;SDS011;34424;52.234;6.500;2022-12-18T09:55:33;14.60;;;10.07;;
48627;SDS011;34424;52.234;6.500;2022-12-18T10:00:40;17.08;;;10.57;;
48627;SDS011;34424;52.234;6.500;2022-12-18T10:05:45;16.20;;;10.70;;
48627;SDS011;34424;52.234;6.500;2022-12-18T10:10:51;12.32;;;9.65;;
48627;SDS011;34424;52.234;6.500;2022-12-18T10:15:57;11.90;;;9.60;;
48627;SDS011;34424;52.234;6.500;2022-12-18T10:21:03;11.23;;;9.02;;
48627;SDS011;34424;52.234;6.500;2022-12-18T10:26:09;14.90;;;11.00;;
48627;SDS011;34424;52.234;6.500;2022-12-18T10:31:16;16.80;;;11.25;;
48627;SDS011;34424;52.234;6.500;2022-12-18T10:36:19;12.20;;;9.25;;
48627;SDS011;34424;52.234;6.500;2022-12-18T10:41:25;17.30;;;11.38;;
48627;SDS011;34424;52.234;6.500;2022-12-18T10:46:31;13.60;;;10.10;;
48627;SDS011;34424;52.234;6.500;2022-12-18T10:51:36;11.43;;;8.55;;
48627;SDS011;34424;52.234;6.500;2022-12-18T10:56:39;11.82;;;8.90;;
48627;SDS011;34424;52.234;6.500;2022-12-18T11:01:49;12.23;;;10.93;;
48627;SDS011;34424;52.234;6.500;2022-12-18T11:06:57;15.13;;;9.02;;
48627;SDS011;34424;52.234;6.500;2022-12-18T11:12:01;9.90;;;8.35;;
48627;SDS011;34424;52.234;6.500;2022-12-18T11:17:09;9.38;;;7.38;;
48627;SDS011;34424;52.234;6.500;2022-12-18T11:22:28;9.00;;;7.50;;
48627;SDS011;34424;52.234;6.500;2022-12-18T11:27:30;10.02;;;7.97;;
48627;SDS011;34424;52.234;6.500;2022-12-18T11:32:35;10.87;;;6.93;;
48627;SDS011;34424;52.234;6.500;2022-12-18T11:37:39;10.68;;;6.53;;
48627;SDS011;34424;52.234;6.500;2022-12-18T11:42:45;10.85;;;7.55;;
48627;SDS011;34424;52.234;6.500;2022-12-18T11:47:54;10.35;;;7.45;;
48627;SDS011;34424;52.234;6.500;2022-12-18T11:52:57;11.43;;;7.85;;
48627;SDS011;34424;52.234;6.500;2022-12-18T11:58:07;9.52;;;7.30;;
48627;SDS011;34424;52.234;6.500;2022-12-18T12:08:38;10.45;;;7.72;;
48627;SDS011;34424;52.234;6.500;2022-12-18T12:13:45;8.63;;;7.13;;
48627;SDS011;34424;52.234;6.500;2022-12-18T12:18:53;9.98;;;6.80;;
48627;SDS011;34424;52.234;6.500;2022-12-18T12:23:59;9.05;;;7.85;;
48627;SDS011;34424;52.234;6.500;2022-12-18T12:29:09;9.20;;;7.00;;
48627;SDS011;34424;52.234;6.500;2022-12-18T12:34:23;11.23;;;8.18;;
48627;SDS011;34424;52.234;6.500;2022-12-18T12:39:30;12.10;;;8.35;;
48627;SDS011;34424;52.234;6.500;2022-12-18T12:44:34;10.10;;;8.30;;
48627;SDS011;34424;52.234;6.500;2022-12-18T12:49:38;9.30;;;7.43;;
48627;SDS011;34424;52.234;6.500;2022-12-18T12:54:42;9.70;;;7.30;;
48627;SDS011;34424;52.234;6.500;2022-12-18T12:59:47;13.40;;;8.13;;
48627;SDS011;34424;52.234;6.500;2022-12-18T13:04:52;11.15;;;9.27;;
48627;SDS011;34424;52.234;6.500;2022-12-18T13:15:21;17.15;;;11.65;;
48627;SDS011;34424;52.234;6.500;2022-12-18T13:20:25;21.83;;;12.57;;
48627;SDS011;34424;52.234;6.500;2022-12-18T13:25:35;18.25;;;10.88;;
48627;SDS011;34424;52.234;6.500;2022-12-18T13:30:53;15.52;;;11.00;;
48627;SDS011;34424;52.234;6.500;2022-12-18T13:36:00;15.93;;;10.98;;
48627;SDS011;34424;52.234;6.500;2022-12-18T13:41:04;16.75;;;11.27;;
48627;SDS011;34424;52.234;6.500;2022-12-18T13:51:30;10.23;;;8.43;;
48627;SDS011;34424;52.234;6.500;2022-12-18T13:56:33;8.63;;;7.50;;
48627;SDS011;34424;52.234;6.500;2022-12-18T14:01:36;9.43;;;7.00;;
48627;SDS011;34424;52.234;6.500;2022-12-18T14:06:40;12.17;;;8.37;;
48627;SDS011;34424;52.234;6.500;2022-12-18T14:11:47;10.02;;;7.40;;
48627;SDS011;34424;52.234;6.500;2022-12-18T14:16:51;10.82;;;7.20;;
48627;SDS011;34424;52.234;6.500;2022-12-18T14:21:55;8.97;;;6.73;;
48627;SDS011;34424;52.234;6.500;2022-12-18T14:32:03;12.55;;;7.90;;
48627;SDS011;34424;52.234;6.500;2022-12-18T14:37:12;14.93;;;10.68;;
48627;SDS011;34424;52.234;6.500;2022-12-18T14:42:15;20.88;;;13.77;;
48627;SDS011;34424;52.234;6.500;2022-12-18T14:47:17;12.50;;;9.63;;
48627;SDS011;34424;52.234;6.500;2022-12-18T14:52:25;12.68;;;9.90;;
48627;SDS011;34424;52.234;6.500;2022-12-18T14:57:29;10.60;;;8.65;;
48627;SDS011;34424;52.234;6.500;2022-12-18T15:02:34;13.02;;;9.77;;
48627;SDS011;34424;52.234;6.500;2022-12-18T15:07:41;11.68;;;8.30;;
48627;SDS011;34424;52.234;6.500;2022-12-18T15:12:44;13.98;;;8.73;;
48627;SDS011;34424;52.234;6.500;2022-12-18T15:17:47;12.93;;;9.47;;
48627;SDS011;34424;52.234;6.500;2022-12-18T15:22:50;12.02;;;9.60;;
48627;SDS011;34424;52.234;6.500;2022-12-18T15:27:53;12.30;;;8.75;;
48627;SDS011;34424;52.234;6.500;2022-12-18T15:38:14;11.05;;;8.50;;
48627;SDS011;34424;52.234;6.500;2022-12-18T15:43:16;12.90;;;9.35;;
48627;SDS011;34424;52.234;6.500;2022-12-18T15:48:39;13.63;;;10.32;;
48627;SDS011;34424;52.234;6.500;2022-12-18T15:53:43;11.95;;;8.68;;
48627;SDS011;34424;52.234;6.500;2022-12-18T15:58:46;13.80;;;10.65;;
48627;SDS011;34424;52.234;6.500;2022-12-18T16:03:49;15.80;;;11.90;;
48627;SDS011;34424;52.234;6.500;2022-12-18T16:08:52;13.50;;;10.60;;
48627;SDS011;34424;52.234;6.500;2022-12-18T16:13:55;14.70;;;10.95;;
48627;SDS011;34424;52.234;6.500;2022-12-18T16:18:57;12.80;;;10.15;;
48627;SDS011;34424;52.234;6.500;2022-12-18T16:24:03;16.30;;;11.18;;
48627;SDS011;34424;52.234;6.500;2022-12-18T16:29:06;20.35;;;13.25;;
48627;SDS011;34424;52.234;6.500;2022-12-18T16:34:10;19.05;;;15.30;;
48627;SDS011;34424;52.234;6.500;2022-12-18T16:39:13;13.97;;;10.77;;
48627;SDS011;34424;52.234;6.500;2022-12-18T16:49:18;12.13;;;10.23;;
48627;SDS011;34424;52.234;6.500;2022-12-18T16:54:22;13.70;;;11.00;;
48627;SDS011;34424;52.234;6.500;2022-12-18T16:59:25;17.77;;;13.40;;
48627;SDS011;34424;52.234;6.500;2022-12-18T17:04:28;15.65;;;10.70;;
48627;SDS011;34424;52.234;6.500;2022-12-18T17:09:32;16.77;;;11.00;;
48627;SDS011;34424;52.234;6.500;2022-12-18T17:14:34;16.48;;;11.00;;
48627;SDS011;34424;52.234;6.500;2022-12-18T17:19:37;18.20;;;14.90;;
48627;SDS011;34424;52.234;6.500;2022-12-18T17:24:41;18.75;;;15.13;;
48627;SDS011;34424;52.234;6.500;2022-12-18T17:29:43;17.30;;;11.88;;
48627;SDS011;34424;52.234;6.500;2022-12-18T17:34:48;17.00;;;11.57;;
48627;SDS011;34424;52.234;6.500;2022-12-18T17:39:52;17.70;;;13.02;;
48627;SDS011;34424;52.234;6.500;2022-12-18T17:44:55;15.63;;;13.73;;
48627;SDS011;34424;52.234;6.500;2022-12-18T17:49:59;14.65;;;11.57;;
48627;SDS011;34424;52.234;6.500;2022-12-18T17:55:02;14.57;;;10.65;;
48627;SDS011;34424;52.234;6.500;2022-12-18T18:00:05;17.17;;;11.70;;
48627;SDS011;34424;52.234;6.500;2022-12-18T18:05:08;13.45;;;10.82;;
48627;SDS011;34424;52.234;6.500;2022-12-18T18:10:15;17.25;;;11.75;;
48627;SDS011;34424;52.234;6.500;2022-12-18T18:20:20;16.08;;;12.07;;
48627;SDS011;34424;52.234;6.500;2022-12-18T18:25:24;20.17;;;13.90;;
48627;SDS011;34424;52.234;6.500;2022-12-18T18:30:27;18.52;;;13.65;;
48627;SDS011;34424;52.234;6.500;2022-12-18T18:35:30;21.60;;;15.17;;
48627;SDS011;34424;52.234;6.500;2022-12-18T18:40:57;19.10;;;14.13;;
48627;SDS011;34424;52.234;6.500;2022-12-18T18:46:00;22.02;;;14.98;;
48627;SDS011;34424;52.234;6.500;2022-12-18T18:51:04;28.52;;;18.95;;
48627;SDS011;34424;52.234;6.500;2022-12-18T18:56:10;28.00;;;17.20;;
48627;SDS011;34424;52.234;6.500;2022-12-18T19:06:36;26.58;;;18.17;;
48627;SDS011;34424;52.234;6.500;2022-12-18T19:17:01;31.02;;;18.85;;
48627;SDS011;34424;52.234;6.500;2022-12-18T19:22:06;30.67;;;19.90;;
48627;SDS011;34424;52.234;6.500;2022-12-18T19:27:09;30.65;;;21.67;;
48627;SDS011;34424;52.234;6.500;2022-12-18T19:32:14;34.50;;;20.50;;
48627;SDS011;34424;52.234;6.500;2022-12-18T19:37:17;35.15;;;22.15;;
48627;SDS011;34424;52.234;6.500;2022-12-18T19:47:30;33.92;;;20.45;;
48627;SDS011;34424;52.234;6.500;2022-12-18T19:52:33;35.78;;;21.98;;
48627;SDS011;34424;52.234;6.500;2022-12-18T19:57:36;34.03;;;21.23;;
48627;SDS011;34424;52.234;6.500;2022-12-18T20:02:40;30.37;;;21.97;;
48627;SDS011;34424;52.234;6.500;2022-12-18T20:07:43;36.38;;;24.23;;
48627;SDS011;34424;52.234;6.500;2022-12-18T20:12:46;35.85;;;22.48;;
48627;SDS011;34424;52.234;6.500;2022-12-18T20:17:50;41.65;;;23.80;;
48627;SDS011;34424;52.234;6.500;2022-12-18T20:22:53;34.92;;;22.90;;
48627;SDS011;34424;52.234;6.500;2022-12-18T20:27:56;34.10;;;21.90;;
48627;SDS011;34424;52.234;6.500;2022-12-18T20:33:00;39.65;;;24.25;;
48627;SDS011;34424;52.234;6.500;2022-12-18T20:38:02;36.33;;;23.77;;
48627;SDS011;34424;52.234;6.500;2022-12-18T20:43:06;32.40;;;22.13;;
48627;SDS011;34424;52.234;6.500;2022-12-18T20:48:15;37.88;;;22.40;;
48627;SDS011;34424;52.234;6.500;2022-12-18T20:53:23;38.47;;;22.05;;
48627;SDS011;34424;52.234;6.500;2022-12-18T20:58:26;33.38;;;23.05;;
48627;SDS011;34424;52.234;6.500;2022-12-18T21:03:30;32.70;;;22.83;;
48627;SDS011;34424;52.234;6.500;2022-12-18T21:08:32;37.08;;;23.80;;
48627;SDS011;34424;52.234;6.500;2022-12-18T21:13:35;39.83;;;23.25;;
48627;SDS011;34424;52.234;6.500;2022-12-18T21:18:38;41.65;;;25.48;;
48627;SDS011;34424;52.234;6.500;2022-12-18T21:23:41;37.55;;;24.08;;
48627;SDS011;34424;52.234;6.500;2022-12-18T21:28:43;39.17;;;24.73;;
48627;SDS011;34424;52.234;6.500;2022-12-18T21:33:47;40.75;;;26.40;;
48627;SDS011;34424;52.234;6.500;2022-12-18T21:38:52;41.17;;;25.08;;
48627;SDS011;34424;52.234;6.500;2022-12-18T21:43:55;40.95;;;25.05;;
48627;SDS011;34424;52.234;6.500;2022-12-18T21:49:08;43.38;;;27.27;;
48627;SDS011;34424;52.234;6.500;2022-12-18T21:54:11;46.75;;;27.98;;
48627;SDS011;34424;52.234;6.500;2022-12-18T21:59:14;45.15;;;26.88;;
48627;SDS011;34424;52.234;6.500;2022-12-18T22:04:18;41.80;;;26.02;;
48627;SDS011;34424;52.234;6.500;2022-12-18T22:09:22;45.22;;;26.98;;
48627;SDS011;34424;52.234;6.500;2022-12-18T22:14:25;43.80;;;26.65;;
48627;SDS011;34424;52.234;6.500;2022-12-18T22:19:29;49.13;;;25.87;;
48627;SDS011;34424;52.234;6.500;2022-12-18T22:24:31;41.88;;;26.90;;
48627;SDS011;34424;52.234;6.500;2022-12-18T22:29:33;44.55;;;26.27;;
48627;SDS011;34424;52.234;6.500;2022-12-18T22:35:01;43.78;;;27.08;;
48627;SDS011;34424;52.234;6.500;2022-12-18T22:40:10;49.72;;;28.58;;
48627;SDS011;34424;52.234;6.500;2022-12-18T22:45:24;49.10;;;26.80;;
48627;SDS011;34424;52.234;6.500;2022-12-18T22:50:29;45.22;;;27.98;;
48627;SDS011;34424;52.234;6.500;2022-12-18T22:55:33;51.63;;;28.45;;
48627;SDS011;34424;52.234;6.500;2022-12-18T23:00:36;45.15;;;25.85;;
48627;SDS011;34424;52.234;6.500;2022-12-18T23:05:39;45.72;;;26.55;;
48627;SDS011;34424;52.234;6.500;2022-12-18T23:15:44;48.55;;;28.88;;
48627;SDS011;34424;52.234;6.500;2022-12-18T23:20:48;58.67;;;29.88;;
48627;SDS011;34424;52.234;6.500;2022-12-18T23:25:58;48.60;;;29.13;;
48627;SDS011;34424;52.234;6.500;2022-12-18T23:31:01;59.13;;;29.33;;
48627;SDS011;34424;52.234;6.500;2022-12-18T23:36:08;47.03;;;27.02;;
48627;SDS011;34424;52.234;6.500;2022-12-18T23:41:12;48.30;;;28.92;;
48627;SDS011;34424;52.234;6.500;2022-12-18T23:46:16;47.00;;;27.95;;
48627;SDS011;34424;52.234;6.500;2022-12-18T23:51:21;47.90;;;27.52;;
48627;SDS011;34424;52.234;6.500;2022-12-18T23:56:25;52.47;;;27.83;;
